Time;durP1;ratioP1;P1;durP2;ratioP2;P2;SDS_P1;SDS_P2;PMS_P1;PMS_P2;Temp;Humidity;BMP_temperature;BMP_pressure;BME280_temperature;BME280_humidity;BME280_pressure;Samples;Min_cycle;Max_cycle;Signal;HPM_P1;HPM_P2
2022/09/06 00:00:59;;;;;;;6.93;4.10;;;;;;;;;;5124384;27;20249;-67
2022/09/06 00:03:27;;;;;;;5.25;4.15;;;;;;;;;;5102811;27;20700;-67
2022/09/06 00:05:54;;;;;;;6.25;4.22;;;;;;;;;;5099786;27;20206;-67
2022/09/06 00:08:21;;;;;;;4.07;3.78;;;;;;;;;;5096944;27;20229;-67
2022/09/06 00:10:56;;;;;;;4.85;4.10;;;;;;;;;;5098644;27;20207;-67
2022/09/06 00:13:27;;;;;;;4.60;4.20;;;;;;;;;;5104505;27;20349;-67
2022/09/06 00:15:54;;;;;;;4.20;3.90;;;;;;;;;;5101948;27;20668;-68
2022/09/06 00:18:22;;;;;;;4.60;4.20;;;;;;;;;;5093867;27;20200;-67
2022/09/06 00:20:49;;;;;;;4.30;3.80;;;;;;;;;;5117820;27;20680;-67
2022/09/06 00:23:17;;;;;;;5.15;4.63;;;;;;;;;;5096147;27;20708;-67
2022/09/06 00:25:44;;;;;;;5.78;4.30;;;;;;;;;;5103710;27;20199;-67
2022/09/06 00:28:12;;;;;;;5.43;4.90;;;;;;;;;;5101995;27;20198;-67
2022/09/06 00:30:40;;;;;;;5.15;4.75;;;;;;;;;;5099500;27;20196;-67
2022/09/06 00:33:07;;;;;;;5.25;4.55;;;;;;;;;;5118085;27;20219;-67
2022/09/06 00:35:34;;;;;;;7.30;4.90;;;;;;;;;;5092047;27;20199;-67
2022/09/06 00:38:02;;;;;;;5.68;4.50;;;;;;;;;;5099688;27;20204;-66
2022/09/06 00:40:32;;;;;;;5.57;4.13;;;;;;;;;;5101237;27;20232;-67
2022/09/06 00:43:00;;;;;;;4.43;4.03;;;;;;;;;;5096920;28;20273;-67
2022/09/06 00:45:27;;;;;;;5.22;4.55;;;;;;;;;;5103779;28;20280;-66
2022/09/06 00:47:55;;;;;;;4.45;4.05;;;;;;;;;;5099615;28;20211;-68
2022/09/06 00:50:23;;;;;;;4.97;4.57;;;;;;;;;;5100990;28;20203;-66
2022/09/06 00:52:51;;;;;;;5.93;5.05;;;;;;;;;;5107699;27;20276;-66
2022/09/06 00:55:19;;;;;;;5.00;4.60;;;;;;;;;;5094928;27;20664;-66
2022/09/06 00:57:49;;;;;;;4.43;4.03;;;;;;;;;;5096665;27;20203;-66
2022/09/06 01:00:18;;;;;;;5.10;4.70;;;;;;;;;;5095107;28;20211;-65
2022/09/06 01:02:46;;;;;;;6.80;5.10;;;;;;;;;;5091766;27;20805;-67
2022/09/06 01:05:14;;;;;;;6.18;5.38;;;;;;;;;;5091786;27;20295;-67
2022/09/06 01:07:45;;;;;;;6.28;5.68;;;;;;;;;;5091490;27;20203;-67
2022/09/06 01:10:18;;;;;;;8.27;7.47;;;;;;;;;;5092961;27;20314;-67
2022/09/06 01:13:01;;;;;;;7.45;6.75;;;;;;;;;;5102262;27;20223;-67
2022/09/06 01:15:49;;;;;;;8.70;6.95;;;;;;;;;;5100259;27;20676;-68
2022/09/06 01:18:31;;;;;;;7.88;4.88;;;;;;;;;;5086550;27;20212;-67
2022/09/06 01:21:18;;;;;;;5.80;5.28;;;;;;;;;;5098694;27;20221;-67
2022/09/06 01:24:00;;;;;;;7.70;5.30;;;;;;;;;;5094782;27;20219;-67
2022/09/06 01:26:34;;;;;;;6.15;5.65;;;;;;;;;;5095895;27;20252;-67
2022/09/06 01:29:02;;;;;;;8.32;5.72;;;;;;;;;;5097768;27;20215;-67
2022/09/06 01:31:51;;;;;;;5.40;4.90;;;;;;;;;;5104638;27;20211;-67
2022/09/06 01:34:22;;;;;;;7.38;5.20;;;;;;;;;;5092653;27;20210;-66
2022/09/06 01:36:55;;;;;;;5.78;5.28;;;;;;;;;;5100672;27;20207;-68
2022/09/06 01:39:37;;;;;;;5.30;4.80;;;;;;;;;;5092174;27;20869;-67
2022/09/06 01:42:07;;;;;;;5.50;5.00;;;;;;;;;;5105406;27;20227;-68
2022/09/06 01:44:36;;;;;;;7.47;4.95;;;;;;;;;;5120527;27;20608;-68
2022/09/06 01:47:03;;;;;;;4.68;4.28;;;;;;;;;;5094911;27;20207;-68
2022/09/06 01:49:30;;;;;;;4.45;3.75;;;;;;;;;;5105876;27;20230;-67
2022/09/06 01:52:17;;;;;;;8.02;3.95;;;;;;;;;;5117280;27;20223;-68
2022/09/06 01:54:56;;;;;;;4.28;3.88;;;;;;;;;;5110406;27;20252;-67
2022/09/06 01:57:35;;;;;;;4.53;4.00;;;;;;;;;;5119346;27;20246;-67
2022/09/06 02:00:10;;;;;;;5.10;4.60;;;;;;;;;;5101274;27;20283;-67
2022/09/06 02:02:40;;;;;;;4.50;4.10;;;;;;;;;;5104905;27;20246;-67
2022/09/06 02:05:27;;;;;;;6.05;4.00;;;;;;;;;;5102601;27;20236;-67
2022/09/06 02:07:57;;;;;;;4.20;3.80;;;;;;;;;;5098872;27;20203;-67
2022/09/06 02:10:27;;;;;;;3.97;3.60;;;;;;;;;;5103283;27;20204;-66
2022/09/06 02:12:57;;;;;;;3.70;3.42;;;;;;;;;;5103102;27;20253;-67
2022/09/06 02:15:24;;;;;;;3.50;3.30;;;;;;;;;;5107585;27;20210;-67
2022/09/06 02:18:18;;;;;;;4.30;3.85;;;;;;;;;;5109108;27;20204;-67
2022/09/06 02:20:49;;;;;;;6.18;4.00;;;;;;;;;;5100515;27;20223;-67
2022/09/06 02:23:17;;;;;;;6.35;4.10;;;;;;;;;;5106342;27;20219;-67
2022/09/06 02:25:49;;;;;;;6.15;4.80;;;;;;;;;;5105397;27;20199;-67
2022/09/06 02:28:16;;;;;;;4.70;4.25;;;;;;;;;;5101473;27;20203;-67
2022/09/06 02:30:49;;;;;;;4.45;3.63;;;;;;;;;;5106594;27;20208;-67
2022/09/06 02:33:19;;;;;;;5.00;3.88;;;;;;;;;;5103303;27;20231;-67
2022/09/06 02:35:48;;;;;;;5.88;3.70;;;;;;;;;;5107706;27;20630;-67
2022/09/06 02:38:16;;;;;;;3.90;3.60;;;;;;;;;;5123951;27;20203;-66
2022/09/06 02:40:45;;;;;;;5.80;3.92;;;;;;;;;;5123065;27;20215;-66
2022/09/06 02:43:12;;;;;;;3.85;3.45;;;;;;;;;;5111143;27;20227;-66
2022/09/06 02:45:39;;;;;;;4.82;3.90;;;;;;;;;;5104949;27;20612;-66
2022/09/06 02:48:07;;;;;;;4.47;4.10;;;;;;;;;;5104129;27;20211;-66
2022/09/06 02:50:35;;;;;;;4.95;4.45;;;;;;;;;;5108925;27;20263;-67
2022/09/06 02:53:06;;;;;;;4.93;4.30;;;;;;;;;;5101072;27;20653;-67
2022/09/06 02:55:33;;;;;;;4.55;4.15;;;;;;;;;;5132133;27;20187;-66
2022/09/06 02:58:02;;;;;;;5.75;4.50;;;;;;;;;;5113180;27;20232;-65
2022/09/06 03:00:29;;;;;;;7.43;4.55;;;;;;;;;;5103337;27;20240;-65
2022/09/06 03:02:56;;;;;;;6.20;4.78;;;;;;;;;;5105638;27;20223;-64
2022/09/06 03:05:24;;;;;;;5.57;4.63;;;;;;;;;;5091792;27;20208;-68
2022/09/06 03:07:53;;;;;;;5.20;4.68;;;;;;;;;;5119094;27;20550;-68
2022/09/06 03:10:25;;;;;;;4.85;4.45;;;;;;;;;;5104323;27;20208;-67
2022/09/06 03:12:52;;;;;;;6.97;5.18;;;;;;;;;;5098356;27;20235;-65
2022/09/06 03:15:20;;;;;;;6.70;5.00;;;;;;;;;;5104634;27;20246;-67
2022/09/06 03:17:47;;;;;;;5.45;4.95;;;;;;;;;;5105051;27;20200;-68
2022/09/06 03:20:15;;;;;;;5.30;4.90;;;;;;;;;;5102223;27;20230;-67
2022/09/06 03:22:42;;;;;;;4.97;4.47;;;;;;;;;;5091687;27;20298;-67
2022/09/06 03:25:10;;;;;;;8.50;5.05;;;;;;;;;;5100155;27;20206;-66
2022/09/06 03:27:37;;;;;;;5.88;5.28;;;;;;;;;;5093045;27;20215;-67
2022/09/06 03:30:05;;;;;;;5.03;4.63;;;;;;;;;;5091135;27;20227;-65
2022/09/06 03:32:33;;;;;;;5.88;5.03;;;;;;;;;;5103143;27;20239;-66
2022/09/06 03:35:00;;;;;;;7.63;4.60;;;;;;;;;;5093438;27;20195;-67
2022/09/06 03:37:28;;;;;;;4.95;4.47;;;;;;;;;;5098630;27;21404;-67
2022/09/06 03:39:55;;;;;;;5.30;4.78;;;;;;;;;;5096345;27;20223;-66
2022/09/06 03:42:25;;;;;;;4.88;4.47;;;;;;;;;;5109094;27;20232;-65
2022/09/06 03:44:53;;;;;;;4.97;4.25;;;;;;;;;;5087825;27;20211;-66
2022/09/06 03:47:20;;;;;;;6.47;4.22;;;;;;;;;;5102211;27;20288;-67
2022/09/06 03:49:47;;;;;;;4.45;4.10;;;;;;;;;;5088247;27;20809;-67
2022/09/06 03:52:15;;;;;;;5.70;4.53;;;;;;;;;;5086569;27;20996;-66
2022/09/06 03:54:42;;;;;;;6.68;4.00;;;;;;;;;;5086094;27;20211;-67
2022/09/06 03:57:09;;;;;;;6.40;4.88;;;;;;;;;;5091945;27;20202;-68
2022/09/06 03:59:37;;;;;;;4.72;4.32;;;;;;;;;;5088678;27;20237;-66
2022/09/06 04:02:05;;;;;;;9.02;4.63;;;;;;;;;;5100362;27;20245;-65
2022/09/06 04:04:32;;;;;;;4.72;4.28;;;;;;;;;;5089183;27;20285;-66
2022/09/06 04:07:00;;;;;;;5.07;4.50;;;;;;;;;;5094783;27;20199;-67
2022/09/06 04:09:27;;;;;;;6.43;4.28;;;;;;;;;;5092579;27;20203;-64
2022/09/06 04:11:54;;;;;;;4.60;4.20;;;;;;;;;;5091534;27;20228;-65
2022/09/06 04:14:22;;;;;;;6.35;4.63;;;;;;;;;;5097513;27;20257;-67
2022/09/06 04:16:49;;;;;;;4.90;4.50;;;;;;;;;;5100910;27;20248;-66
2022/09/06 04:19:17;;;;;;;5.05;4.65;;;;;;;;;;5092347;27;20564;-67
2022/09/06 04:21:44;;;;;;;5.05;4.55;;;;;;;;;;5093129;27;20675;-68
2022/09/06 04:24:12;;;;;;;5.45;4.93;;;;;;;;;;5089325;27;20654;-63
2022/09/06 04:26:39;;;;;;;6.40;5.20;;;;;;;;;;5096835;27;21890;-67
2022/09/06 04:29:07;;;;;;;5.20;4.70;;;;;;;;;;5094499;28;20196;-64
2022/09/06 04:31:35;;;;;;;4.68;4.28;;;;;;;;;;5094336;27;20207;-67
2022/09/06 04:34:02;;;;;;;5.50;4.97;;;;;;;;;;5094588;27;20796;-67
2022/09/06 04:36:29;;;;;;;5.50;4.90;;;;;;;;;;5116344;27;20207;-68
2022/09/06 04:38:57;;;;;;;5.05;4.50;;;;;;;;;;5098679;27;20199;-67
2022/09/06 04:41:24;;;;;;;8.30;6.00;;;;;;;;;;5092368;27;20235;-66
2022/09/06 04:43:52;;;;;;;7.45;5.70;;;;;;;;;;5093497;27;20254;-64
2022/09/06 04:46:21;;;;;;;7.03;6.15;;;;;;;;;;5093456;27;20212;-67
2022/09/06 04:48:49;;;;;;;5.97;5.40;;;;;;;;;;5096311;27;20191;-66
2022/09/06 04:51:16;;;;;;;5.97;5.35;;;;;;;;;;5099483;27;21130;-68
2022/09/06 04:53:44;;;;;;;6.45;4.68;;;;;;;;;;5110324;27;20532;-67
2022/09/06 04:56:14;;;;;;;4.85;4.35;;;;;;;;;;5098250;27;20208;-66
2022/09/06 04:58:42;;;;;;;4.88;4.47;;;;;;;;;;5096977;27;20204;-67
2022/09/06 05:01:10;;;;;;;5.90;4.80;;;;;;;;;;5101707;27;20360;-66
2022/09/06 05:03:37;;;;;;;5.75;4.93;;;;;;;;;;5110136;27;20223;-68
2022/09/06 05:06:12;;;;;;;5.65;5.15;;;;;;;;;;5092491;27;20195;-68
2022/09/06 05:08:40;;;;;;;4.90;4.40;;;;;;;;;;5091387;27;20218;-68
2022/09/06 05:11:08;;;;;;;6.57;5.00;;;;;;;;;;5093804;27;20210;-65
2022/09/06 05:13:35;;;;;;;5.90;5.13;;;;;;;;;;5100193;27;20228;-67
2022/09/06 05:16:04;;;;;;;5.55;4.88;;;;;;;;;;5099456;27;20209;-68
2022/09/06 05:18:32;;;;;;;6.32;5.20;;;;;;;;;;5114420;27;22167;-69
2022/09/06 05:21:00;;;;;;;7.55;5.30;;;;;;;;;;5100235;27;20223;-65
2022/09/06 05:23:27;;;;;;;5.35;4.80;;;;;;;;;;5097032;27;20224;-65
2022/09/06 05:25:55;;;;;;;5.72;5.13;;;;;;;;;;5110825;27;20206;-67
2022/09/06 05:28:22;;;;;;;5.82;5.32;;;;;;;;;;5097976;27;20211;-68
2022/09/06 05:30:50;;;;;;;8.82;6.18;;;;;;;;;;5097600;27;20207;-66
2022/09/06 05:33:21;;;;;;;8.00;5.47;;;;;;;;;;5095040;27;20223;-66
2022/09/06 05:35:49;;;;;;;6.70;4.95;;;;;;;;;;5093007;27;20813;-65
2022/09/06 05:38:16;;;;;;;5.38;4.88;;;;;;;;;;5101216;27;21192;-66
2022/09/06 05:40:44;;;;;;;4.80;4.30;;;;;;;;;;5096645;27;20297;-66
2022/09/06 05:43:11;;;;;;;5.70;4.85;;;;;;;;;;5098310;27;20215;-67
2022/09/06 05:45:39;;;;;;;7.35;4.90;;;;;;;;;;5099051;27;20204;-66
2022/09/06 05:48:07;;;;;;;6.10;4.50;;;;;;;;;;5102453;27;20208;-64
2022/09/06 05:50:34;;;;;;;6.22;4.55;;;;;;;;;;5100288;27;20207;-67
2022/09/06 05:53:02;;;;;;;7.55;4.78;;;;;;;;;;5096964;27;20223;-66
2022/09/06 05:55:29;;;;;;;5.72;4.10;;;;;;;;;;5113160;27;20206;-66
2022/09/06 05:57:57;;;;;;;6.18;4.57;;;;;;;;;;5096621;27;20231;-67
2022/09/06 06:00:24;;;;;;;4.95;4.45;;;;;;;;;;5100524;27;20235;-66
2022/09/06 06:02:52;;;;;;;6.05;4.75;;;;;;;;;;5097765;27;21500;-68
2022/09/06 06:05:19;;;;;;;6.15;4.60;;;;;;;;;;5097805;27;20195;-66
2022/09/06 06:07:46;;;;;;;5.28;4.80;;;;;;;;;;5105648;27;20195;-66
2022/09/06 06:10:14;;;;;;;5.43;4.55;;;;;;;;;;5100899;27;20207;-65
2022/09/06 06:12:42;;;;;;;8.02;5.07;;;;;;;;;;5104949;27;20220;-67
2022/09/06 06:15:09;;;;;;;6.22;5.28;;;;;;;;;;5097211;27;20204;-67
2022/09/06 06:17:36;;;;;;;6.85;5.50;;;;;;;;;;5098058;27;20203;-67
2022/09/06 06:20:04;;;;;;;8.73;5.55;;;;;;;;;;5103165;27;20581;-63
2022/09/06 06:22:31;;;;;;;8.68;5.90;;;;;;;;;;5121991;27;20725;-68
2022/09/06 06:24:59;;;;;;;9.77;6.00;;;;;;;;;;5101005;27;20618;-63
2022/09/06 06:27:26;;;;;;;6.55;5.90;;;;;;;;;;5100994;27;20207;-64
2022/09/06 06:29:53;;;;;;;8.88;6.47;;;;;;;;;;5092142;27;20817;-66
2022/09/06 06:32:21;;;;;;;7.72;6.35;;;;;;;;;;5106759;27;20223;-67
2022/09/06 06:34:48;;;;;;;9.85;7.25;;;;;;;;;;5095745;27;20260;-68
2022/09/06 06:37:15;;;;;;;8.20;6.35;;;;;;;;;;5098622;27;20204;-68
2022/09/06 06:39:43;;;;;;;9.45;6.57;;;;;;;;;;5094971;27;20211;-67
2022/09/06 06:42:11;;;;;;;7.28;6.57;;;;;;;;;;5105133;27;20230;-66
2022/09/06 06:44:38;;;;;;;6.85;6.15;;;;;;;;;;5100067;27;20203;-68
2022/09/06 06:47:06;;;;;;;6.90;6.30;;;;;;;;;;5103592;27;20268;-67
2022/09/06 06:49:34;;;;;;;7.72;7.03;;;;;;;;;;5107989;27;20596;-64
2022/09/06 06:52:01;;;;;;;8.88;6.45;;;;;;;;;;5098828;27;20284;-68
2022/09/06 06:54:29;;;;;;;7.70;6.30;;;;;;;;;;5095117;27;20202;-66
2022/09/06 06:56:56;;;;;;;8.52;6.43;;;;;;;;;;5093772;28;20579;-69
2022/09/06 06:59:24;;;;;;;7.75;6.80;;;;;;;;;;5096754;27;20235;-67
2022/09/06 07:01:51;;;;;;;6.80;6.20;;;;;;;;;;5092495;27;20225;-68
2022/09/06 07:04:19;;;;;;;11.05;6.75;;;;;;;;;;5093258;27;20210;-66
2022/09/06 07:06:54;;;;;;;7.70;6.28;;;;;;;;;;5087979;27;20212;-68
2022/09/06 07:09:41;;;;;;;6.55;5.88;;;;;;;;;;5102330;27;20200;-69
2022/09/06 07:12:29;;;;;;;6.70;6.05;;;;;;;;;;5111404;27;20788;-68
2022/09/06 07:14:56;;;;;;;6.22;5.70;;;;;;;;;;5090690;27;20207;-66
2022/09/06 07:17:23;;;;;;;9.50;6.10;;;;;;;;;;5095325;27;20628;-66
2022/09/06 07:19:51;;;;;;;6.97;6.18;;;;;;;;;;5099311;27;20600;-71
2022/09/06 07:22:39;;;;;;;10.85;6.18;;;;;;;;;;5098676;27;20640;-69
2022/09/06 07:25:07;;;;;;;7.40;5.90;;;;;;;;;;5097981;27;20199;-72
2022/09/06 07:27:35;;;;;;;6.22;5.53;;;;;;;;;;5088295;27;20211;-65
2022/09/06 07:30:13;;;;;;;6.85;6.15;;;;;;;;;;5098951;27;20196;-69
2022/09/06 07:32:41;;;;;;;8.38;6.05;;;;;;;;;;5106069;27;20313;-66
2022/09/06 07:35:11;;;;;;;9.02;5.72;;;;;;;;;;5093875;27;20222;-67
2022/09/06 07:37:38;;;;;;;5.75;5.25;;;;;;;;;;5098138;27;20204;-71
2022/09/06 07:40:06;;;;;;;8.75;5.15;;;;;;;;;;5090528;27;20356;-66
2022/09/06 07:42:33;;;;;;;7.28;5.60;;;;;;;;;;5109359;27;20231;-66
2022/09/06 07:45:03;;;;;;;7.43;5.40;;;;;;;;;;5095995;27;20199;-71
2022/09/06 07:47:34;;;;;;;5.97;5.22;;;;;;;;;;5096004;27;20668;-70
2022/09/06 07:50:22;;;;;;;5.80;5.15;;;;;;;;;;5097016;27;20287;-72
2022/09/06 07:53:10;;;;;;;7.53;5.20;;;;;;;;;;5110168;27;20227;-66
2022/09/06 07:55:43;;;;;;;6.35;4.85;;;;;;;;;;5099943;27;20252;-70
2022/09/06 07:58:11;;;;;;;6.65;5.00;;;;;;;;;;5098349;27;20284;-67
2022/09/06 08:00:39;;;;;;;6.50;5.40;;;;;;;;;;5094086;27;20826;-67
2022/09/06 08:03:07;;;;;;;7.28;5.20;;;;;;;;;;5096697;27;20911;-64
2022/09/06 08:05:35;;;;;;;8.35;5.22;;;;;;;;;;5097989;27;20249;-67
2022/09/06 08:08:24;;;;;;;4.85;4.45;;;;;;;;;;5115825;27;20411;-67
2022/09/06 08:11:12;;;;;;;6.13;4.50;;;;;;;;;;5102302;27;20200;-64
2022/09/06 08:13:42;;;;;;;7.90;4.60;;;;;;;;;;5095752;27;20231;-68
2022/09/06 08:16:12;;;;;;;5.85;4.47;;;;;;;;;;5097914;27;20333;-66
2022/09/06 08:18:41;;;;;;;5.00;4.50;;;;;;;;;;5099389;27;20291;-66
2022/09/06 08:21:13;;;;;;;6.15;4.32;;;;;;;;;;5115735;27;21851;-67
2022/09/06 08:23:47;;;;;;;7.45;4.75;;;;;;;;;;5120910;27;20223;-66
2022/09/06 08:26:16;;;;;;;6.10;4.18;;;;;;;;;;5086209;27;20200;-64
2022/09/06 08:28:45;;;;;;;6.35;4.00;;;;;;;;;;5094995;27;20191;-67
2022/09/06 08:31:14;;;;;;;6.55;4.25;;;;;;;;;;5118536;27;20347;-63
2022/09/06 08:33:43;;;;;;;8.43;4.45;;;;;;;;;;5102996;28;20216;-66
2022/09/06 08:36:11;;;;;;;7.47;4.00;;;;;;;;;;5099816;28;20240;-66
2022/09/06 08:38:39;;;;;;;4.95;4.28;;;;;;;;;;5107028;27;20271;-64
2022/09/06 08:41:11;;;;;;;10.82;4.20;;;;;;;;;;5105083;28;20227;-68
2022/09/06 08:43:45;;;;;;;9.75;4.40;;;;;;;;;;5097368;27;20215;-65
2022/09/06 08:46:14;;;;;;;4.93;3.83;;;;;;;;;;5118468;27;20240;-68
2022/09/06 08:48:42;;;;;;;6.13;3.58;;;;;;;;;;5109246;27;20293;-66
2022/09/06 08:51:22;;;;;;;4.65;3.50;;;;;;;;;;5088796;27;20199;-67
2022/09/06 08:53:52;;;;;;;6.43;3.90;;;;;;;;;;5093067;27;21243;-67
2022/09/06 08:56:25;;;;;;;6.50;3.92;;;;;;;;;;5115622;27;20314;-66
2022/09/06 08:59:07;;;;;;;5.10;3.45;;;;;;;;;;5093950;27;20217;-66
2022/09/06 09:01:40;;;;;;;5.60;4.10;;;;;;;;;;5091911;27;20720;-66
2022/09/06 09:04:13;;;;;;;6.60;4.15;;;;;;;;;;5079397;27;20570;-66
2022/09/06 09:06:40;;;;;;;7.35;3.55;;;;;;;;;;5087937;28;20212;-68
2022/09/06 09:09:12;;;;;;;6.90;3.67;;;;;;;;;;5099705;27;20212;-67
2022/09/06 09:11:44;;;;;;;9.10;3.92;;;;;;;;;;5096097;27;20260;-67
2022/09/06 09:14:14;;;;;;;5.70;3.80;;;;;;;;;;5102736;27;20211;-67
2022/09/06 09:16:42;;;;;;;7.35;3.65;;;;;;;;;;5101139;28;20207;-67
2022/09/06 09:19:10;;;;;;;6.15;4.10;;;;;;;;;;5097456;27;20211;-67
2022/09/06 09:21:38;;;;;;;7.40;4.22;;;;;;;;;;5105872;27;20224;-68
2022/09/06 09:24:07;;;;;;;4.65;3.70;;;;;;;;;;5093094;27;20219;-69
2022/09/06 09:26:55;;;;;;;9.73;4.13;;;;;;;;;;5093997;27;20205;-67
2022/09/06 09:29:23;;;;;;;6.03;4.05;;;;;;;;;;5096664;27;20200;-67
2022/09/06 09:31:56;;;;;;;7.43;4.25;;;;;;;;;;5096525;27;20223;-66
2022/09/06 09:34:38;;;;;;;8.45;4.43;;;;;;;;;;5097594;27;20377;-67
2022/09/06 09:37:26;;;;;;;6.60;4.05;;;;;;;;;;5123954;27;20217;-68
2022/09/06 09:40:20;;;;;;;5.65;4.13;;;;;;;;;;5125953;27;20195;-67
2022/09/06 09:42:48;;;;;;;8.30;4.35;;;;;;;;;;5102022;27;20237;-66
2022/09/06 09:45:26;;;;;;;5.18;3.60;;;;;;;;;;5101393;27;20618;-66
2022/09/06 09:47:54;;;;;;;7.85;3.45;;;;;;;;;;5100831;27;20219;-66
2022/09/06 09:50:26;;;;;;;5.57;3.92;;;;;;;;;;5100753;27;20207;-66
2022/09/06 09:52:54;;;;;;;7.03;4.13;;;;;;;;;;5107582;27;20747;-66
2022/09/06 09:55:23;;;;;;;7.68;3.60;;;;;;;;;;5104021;27;20226;-66
2022/09/06 09:57:52;;;;;;;9.48;4.13;;;;;;;;;;5099258;27;20200;-66
2022/09/06 10:00:49;;;;;;;6.47;3.45;;;;;;;;;;5114288;27;21866;-67
2022/09/06 10:03:18;;;;;;;4.80;3.63;;;;;;;;;;5087603;27;20620;-66
2022/09/06 10:05:57;;;;;;;10.50;3.70;;;;;;;;;;5096641;27;20274;-66
2022/09/06 10:08:30;;;;;;;8.13;3.90;;;;;;;;;;5095353;27;20287;-66
2022/09/06 10:10:58;;;;;;;10.38;3.50;;;;;;;;;;5103451;27;20749;-66
2022/09/06 10:13:28;;;;;;;5.97;3.55;;;;;;;;;;5090187;27;20231;-66
2022/09/06 10:15:57;;;;;;;7.45;4.22;;;;;;;;;;5093329;27;20208;-68
2022/09/06 10:18:30;;;;;;;8.73;3.60;;;;;;;;;;5093685;27;20200;-71
2022/09/06 10:21:01;;;;;;;7.80;3.88;;;;;;;;;;5106973;27;20204;-67
2022/09/06 10:23:29;;;;;;;8.77;3.70;;;;;;;;;;5100860;27;20268;-66
2022/09/06 10:26:35;;;;;;;8.27;3.80;;;;;;;;;;5103700;27;20199;-66
2022/09/06 10:29:08;;;;;;;7.05;3.83;;;;;;;;;;5095084;27;20204;-67
2022/09/06 10:31:38;;;;;;;6.05;3.25;;;;;;;;;;5107076;27;20204;-67
2022/09/06 10:34:09;;;;;;;10.43;3.65;;;;;;;;;;5108721;27;20235;-67
2022/09/06 10:36:37;;;;;;;7.90;3.47;;;;;;;;;;5115365;27;20685;-67
2022/09/06 10:39:24;;;;;;;8.05;3.63;;;;;;;;;;5115304;27;20203;-66
2022/09/06 10:41:51;;;;;;;4.10;3.33;;;;;;;;;;5098743;27;20211;-66
2022/09/06 10:44:37;;;;;;;6.97;3.50;;;;;;;;;;5096516;27;20211;-67
2022/09/06 10:47:11;;;;;;;6.20;3.50;;;;;;;;;;5083702;27;20218;-67
2022/09/06 10:49:53;;;;;;;5.90;3.50;;;;;;;;;;5091418;27;20215;-67
2022/09/06 10:52:42;;;;;;;7.10;3.50;;;;;;;;;;5118329;27;20216;-66
2022/09/06 10:55:12;;;;;;;6.53;3.70;;;;;;;;;;5113512;27;20728;-65
2022/09/06 10:57:46;;;;;;;8.75;3.60;;;;;;;;;;5105100;27;20204;-66
2022/09/06 11:00:36;;;;;;;8.20;3.33;;;;;;;;;;5116436;27;20222;-67
2022/09/06 11:03:24;;;;;;;9.98;3.28;;;;;;;;;;5101017;27;20280;-67
2022/09/06 11:06:12;;;;;;;8.75;4.20;;;;;;;;;;5100562;27;20207;-67
2022/09/06 11:08:40;;;;;;;8.27;3.55;;;;;;;;;;5102780;27;20207;-66
2022/09/06 11:11:19;;;;;;;5.20;3.70;;;;;;;;;;5097144;27;20284;-65
2022/09/06 11:13:46;;;;;;;6.32;3.50;;;;;;;;;;5097230;27;20211;-67
2022/09/06 11:16:40;;;;;;;9.20;4.03;;;;;;;;;;5103801;27;20195;-68
2022/09/06 11:19:28;;;;;;;4.00;3.28;;;;;;;;;;5091855;27;20204;-66
2022/09/06 11:22:08;;;;;;;8.77;3.95;;;;;;;;;;5093577;27;20235;-68
2022/09/06 11:24:44;;;;;;;7.60;3.67;;;;;;;;;;5096010;27;20267;-66
2022/09/06 11:27:12;;;;;;;7.50;3.50;;;;;;;;;;5099650;27;20195;-65
2022/09/06 11:29:41;;;;;;;6.30;3.40;;;;;;;;;;5099333;27;20204;-69
2022/09/06 11:32:48;;;;;;;6.85;3.55;;;;;;;;;;5100766;27;20243;-72
2022/09/06 11:35:23;;;;;;;5.72;3.28;;;;;;;;;;5001851;28;20648;-69
2022/09/06 11:38:01;;;;;;;6.63;4.05;;;;;;;;;;5013156;28;20225;-67
2022/09/06 11:40:43;;;;;;;6.57;3.70;;;;;;;;;;5062852;27;20199;-72
2022/09/06 11:43:12;;;;;;;6.68;3.50;;;;;;;;;;5105400;27;20227;-67
2022/09/06 11:45:50;;;;;;;8.77;3.92;;;;;;;;;;5097877;27;20203;-68
2022/09/06 11:48:24;;;;;;;10.73;4.07;;;;;;;;;;5095944;27;20196;-67
2022/09/06 11:50:55;;;;;;;6.82;3.75;;;;;;;;;;5116593;27;20202;-67
2022/09/06 11:53:23;;;;;;;6.13;3.67;;;;;;;;;;5101868;27;20231;-68
2022/09/06 11:56:09;;;;;;;5.95;3.65;;;;;;;;;;5099438;27;20265;-66
2022/09/06 11:58:39;;;;;;;6.55;3.63;;;;;;;;;;5101767;28;20207;-69
2022/09/06 12:01:15;;;;;;;7.38;3.42;;;;;;;;;;5089143;27;20744;-71
2022/09/06 12:03:42;;;;;;;8.02;3.25;;;;;;;;;;5100136;28;20625;-67
2022/09/06 12:06:41;;;;;;;6.53;3.85;;;;;;;;;;5101756;27;20623;-72
2022/09/06 12:09:27;;;;;;;6.63;3.67;;;;;;;;;;5095395;27;20207;-72
2022/09/06 12:11:55;;;;;;;11.38;3.97;;;;;;;;;;5098523;27;20609;-68
2022/09/06 12:14:41;;;;;;;7.30;3.75;;;;;;;;;;5100489;27;20248;-66
2022/09/06 12:17:08;;;;;;;7.40;3.47;;;;;;;;;;5098942;27;20211;-66
2022/09/06 12:19:58;;;;;;;8.88;3.53;;;;;;;;;;5101202;27;20212;-67
2022/09/06 12:22:28;;;;;;;6.18;3.33;;;;;;;;;;5103750;28;20235;-67
2022/09/06 12:24:59;;;;;;;6.28;3.60;;;;;;;;;;5124531;27;20236;-71
2022/09/06 12:27:50;;;;;;;7.15;3.00;;;;;;;;;;5104311;28;20244;-65
2022/09/06 12:30:36;;;;;;;5.88;2.85;;;;;;;;;;5094009;27;20591;-70
2022/09/06 12:33:21;;;;;;;6.43;2.88;;;;;;;;;;5090811;27;20281;-71
2022/09/06 12:35:49;;;;;;;5.85;3.15;;;;;;;;;;5092093;27;20592;-67
2022/09/06 12:38:25;;;;;;;7.60;2.97;;;;;;;;;;5101635;27;20294;-65
2022/09/06 12:40:57;;;;;;;7.72;2.95;;;;;;;;;;5090180;27;20211;-71
2022/09/06 12:43:25;;;;;;;6.90;3.03;;;;;;;;;;5088493;27;20231;-67
2022/09/06 12:45:53;;;;;;;5.63;3.08;;;;;;;;;;5095403;27;20256;-65
2022/09/06 12:48:32;;;;;;;4.53;2.75;;;;;;;;;;5116506;27;20200;-66
2022/09/06 12:51:07;;;;;;;7.03;3.40;;;;;;;;;;5094218;28;20203;-67
2022/09/06 12:53:35;;;;;;;12.82;3.83;;;;;;;;;;5099600;27;20238;-66
2022/09/06 12:56:12;;;;;;;6.10;3.05;;;;;;;;;;5099920;27;20204;-66
2022/09/06 12:58:39;;;;;;;8.32;3.35;;;;;;;;;;5089027;27;20211;-66
2022/09/06 13:01:13;;;;;;;6.78;3.22;;;;;;;;;;5124049;27;20209;-65
2022/09/06 13:03:52;;;;;;;5.70;2.95;;;;;;;;;;5097890;27;20227;-64
2022/09/06 13:06:21;;;;;;;5.43;3.38;;;;;;;;;;5095030;27;20285;-64
2022/09/06 13:08:54;;;;;;;5.20;2.40;;;;;;;;;;5091019;27;20206;-65
2022/09/06 13:11:42;;;;;;;4.38;2.78;;;;;;;;;;5094887;27;20196;-64
2022/09/06 13:14:11;;;;;;;7.47;3.30;;;;;;;;;;5093371;27;20373;-66
2022/09/06 13:16:45;;;;;;;6.32;3.13;;;;;;;;;;5116334;27;20245;-64
2022/09/06 13:19:29;;;;;;;5.75;2.67;;;;;;;;;;5118023;27;20206;-67
2022/09/06 13:21:57;;;;;;;5.85;2.95;;;;;;;;;;5115504;27;20688;-65
2022/09/06 13:24:25;;;;;;;5.68;2.97;;;;;;;;;;5100904;27;20298;-63
2022/09/06 13:26:53;;;;;;;3.78;2.45;;;;;;;;;;5102406;27;20222;-66
2022/09/06 13:29:22;;;;;;;6.57;2.88;;;;;;;;;;5101405;27;20199;-65
2022/09/06 13:31:51;;;;;;;6.70;2.95;;;;;;;;;;5107401;27;20241;-67
2022/09/06 13:34:27;;;;;;;7.22;2.72;;;;;;;;;;5101555;27;20207;-67
2022/09/06 13:37:15;;;;;;;3.72;2.55;;;;;;;;;;5101590;27;20252;-64
2022/09/06 13:39:43;;;;;;;5.78;2.90;;;;;;;;;;5086680;27;20200;-65
2022/09/06 13:42:23;;;;;;;5.80;2.80;;;;;;;;;;5091542;27;20297;-67
2022/09/06 13:44:50;;;;;;;5.50;2.72;;;;;;;;;;5099787;27;20260;-65
2022/09/06 13:47:17;;;;;;;4.90;2.83;;;;;;;;;;5096586;27;20211;-68
2022/09/06 13:49:46;;;;;;;4.47;2.78;;;;;;;;;;5099836;27;20725;-65
2022/09/06 13:52:14;;;;;;;6.25;2.60;;;;;;;;;;5098341;27;20636;-67
2022/09/06 13:54:41;;;;;;;7.78;3.03;;;;;;;;;;5099837;27;20218;-67
2022/09/06 13:57:08;;;;;;;4.88;2.65;;;;;;;;;;5100616;27;20208;-64
2022/09/06 13:59:36;;;;;;;6.50;2.63;;;;;;;;;;5092121;27;20203;-67
2022/09/06 14:02:06;;;;;;;5.60;2.78;;;;;;;;;;5109814;27;20239;-63
2022/09/06 14:04:34;;;;;;;7.00;2.60;;;;;;;;;;5093413;27;20214;-64
2022/09/06 14:07:02;;;;;;;6.50;2.47;;;;;;;;;;5101660;27;20199;-66
2022/09/06 14:09:29;;;;;;;5.78;2.60;;;;;;;;;;5114378;27;20207;-67
2022/09/06 14:12:34;;;;;;;5.50;2.63;;;;;;;;;;5091723;27;20219;-66
2022/09/06 14:15:01;;;;;;;5.45;2.70;;;;;;;;;;5105338;27;20207;-67
2022/09/06 14:17:29;;;;;;;4.57;2.78;;;;;;;;;;5100789;28;20260;-66
2022/09/06 14:19:56;;;;;;;6.00;3.05;;;;;;;;;;5108009;27;20297;-67
2022/09/06 14:22:24;;;;;;;4.93;2.58;;;;;;;;;;5090534;27;20227;-67
2022/09/06 14:24:51;;;;;;;3.80;2.80;;;;;;;;;;5091251;27;20597;-65
2022/09/06 14:27:19;;;;;;;3.47;2.30;;;;;;;;;;5093004;27;20198;-65
2022/09/06 14:29:47;;;;;;;7.97;2.67;;;;;;;;;;5086478;27;20204;-66
2022/09/06 14:32:14;;;;;;;5.93;2.67;;;;;;;;;;5083096;27;20228;-66
2022/09/06 14:34:48;;;;;;;4.38;2.58;;;;;;;;;;5096779;27;20245;-66
2022/09/06 14:37:16;;;;;;;5.60;2.38;;;;;;;;;;5099953;27;20203;-65
2022/09/06 14:42:48;;;;;;;6.75;3.00;;;;;;;;;;5111570;27;20228;-65
2022/09/06 14:45:17;;;;;;;12.40;2.90;;;;;;;;;;5093383;27;20284;-65
2022/09/06 14:47:45;;;;;;;5.25;2.53;;;;;;;;;;5110405;27;20218;-66
2022/09/06 14:50:12;;;;;;;8.57;2.85;;;;;;;;;;5095700;27;20207;-67
2022/09/06 14:52:39;;;;;;;4.63;2.58;;;;;;;;;;5104185;27;20232;-64
2022/09/06 14:55:07;;;;;;;6.25;2.70;;;;;;;;;;5089257;27;20248;-66
2022/09/06 14:57:35;;;;;;;7.60;2.72;;;;;;;;;;5092415;27;20214;-65
2022/09/06 15:00:06;;;;;;;9.63;3.00;;;;;;;;;;5079565;27;20204;-66
2022/09/06 15:02:36;;;;;;;3.55;2.85;;;;;;;;;;5094888;27;20227;-66
2022/09/06 15:05:04;;;;;;;8.40;3.63;;;;;;;;;;5086024;27;20206;-67
2022/09/06 15:07:32;;;;;;;6.93;2.97;;;;;;;;;;5095915;27;20204;-67
2022/09/06 15:09:59;;;;;;;5.05;2.90;;;;;;;;;;5090173;27;20204;-66
2022/09/06 15:12:27;;;;;;;4.55;2.95;;;;;;;;;;5094792;27;20230;-66